Flight Track Log - Related Links

Times and Time Zones

All times are in EDT time to prevent confusion due to time zone crossing. See the JBU721 flight status page for this flight to view local times or setup timezone preferences in your user account.

Time Position Orientation Groundspeed Altitude Reporting Facility
EDT Latitude Longitude Course Direction KTS MPH feet Rate Location/Type
Wed 06:08:20 AM 42.3667 -70.9833 208° Southwest 121 139 900  Level KA90
Wed 06:09:19 AM 42.3717 -70.9250 83° East 149 171 2,400 1,966 Climbing Boston Center
Wed 06:10:19 AM 42.3864 -70.8392 77° East 229 264 4,800 2,579 Climbing Boston Center
Wed 06:11:20 AM 42.3825 -70.7481 93° East 248 285 7,600 2,705 Climbing Boston Center
Wed 06:12:21 AM 42.3181 -70.6953 149° Southeast 271 312 10,300 1,934 Climbing Boston Center
Wed 06:13:00 AM 41.7374 -71.4562 208° Southwest  Level Estimated
Wed 06:13:21 AM 42.2331 -70.6544 160° South 301 346 11,500  Level Boston Center
Wed 06:14:22 AM 42.1322 -70.6192 165° South 349 402 13,800 2,262 Climbing Boston Center
Wed 06:15:23 AM 42.0319 -70.6625 198° South 383 441 16,100 1,983 Climbing Boston Center
Wed 06:16:23 AM 41.9314 -70.7064 198° South 383 441 17,800 2,083 Climbing Boston Center
Wed 06:17:24 AM 41.8111 -70.7658 200° South 384 442 20,300 2,066 Climbing Boston Center
Wed 06:18:25 AM 41.7167 -70.8378 210° Southwest 387 445 22,000 1,525 Climbing Boston Center
Wed 06:19:26 AM 41.6194 -70.9117 210° Southwest 396 456 23,400 1,587 Climbing Boston Center
Wed 06:20:26 AM 41.5272 -70.9972 215° Southwest 406 467 25,200 1,488 Climbing Boston Center
Wed 06:21:27 AM 41.4547 -71.1106 230° Southwest 402 463 26,400 984 Climbing Boston Center
Wed 06:22:28 AM 41.3822 -71.2342 232° Southwest 403 464 27,200 787 Climbing Boston Center
Wed 06:23:29 AM 41.3078 -71.3542 230° Southwest 416 479 28,000 1,033 Climbing Boston Center
Wed 06:24:30 AM 41.2342 -71.4697 230° Southwest 425 489 29,300 1,328 Climbing Boston Center
Wed 06:25:31 AM 41.1569 -71.5956 231° Southwest 424 488 30,700 1,537 Climbing Boston Center
Wed 06:26:31 AM 41.0847 -71.7125 231° Southwest 415 478 32,400 1,240 Climbing Boston Center
Wed 06:27:32 AM 41.0142 -71.8256 230° Southwest 404 465 33,200 984 Climbing Boston Center
Wed 06:28:33 AM 40.9419 -71.9400 230° Southwest 403 464 34,400 1,033 Climbing Boston Center
Wed 06:29:34 AM 40.8719 -72.0511 230° Southwest 398 458 35,300 787 Climbing Boston Center
Wed 06:30:35 AM 40.8019 -72.1608 230° Southwest 395 455 36,000 344 Climbing Boston Center
Wed 06:31:36 AM 40.7342 -72.2683 230° Southwest 387 445 36,000  Level Boston Center
Wed 06:32:37 AM 40.6550 -72.3914 230° Southwest 388 447 36,000  Level Boston Center
Wed 06:33:38 AM 40.5856 -72.5011 230° Southwest 388 447 36,000  Level Boston Center
Wed 06:34:39 AM 40.5161 -72.6097 230° Southwest 389 448 36,000  Level Boston Center
Wed 06:35:40 AM 40.4458 -72.7183 230° Southwest 389 448 36,000  Level Boston Center
Wed 06:36:41 AM 40.3767 -72.8286 231° Southwest 390 449 36,000  Level Boston Center
Wed 06:37:41 AM 40.3061 -72.9367 229° Southwest 390 449 36,000  Level Boston Center
Wed 06:38:42 AM 40.2361 -73.0453 230° Southwest 391 450 36,000  Level Boston Center
Wed 06:39:43 AM 40.1575 -73.1647 229° Southwest 391 450 36,000  Level Boston Center
Wed 06:40:44 AM 40.0853 -73.2731 229° Southwest 393 452 36,000  Level Boston Center
Wed 06:41:45 AM 40.0008 -73.3664 220° Southwest 397 457 36,000  Level Boston Center
Wed 06:42:46 AM 39.9258 -73.4497 220° Southwest 398 458 36,000  Level Boston Center
Wed 06:43:47 AM 39.8419 -73.5436 221° Southwest 398 458 36,000  Level Boston Center
Wed 06:44:48 AM 39.7586 -73.6367 221° Southwest 397 457 36,000  Level Boston Center
Wed 06:45:22 AM 39.7067 -73.6928 220° Southwest 402 463 36,000  Level Washington Center
Wed 06:46:22 AM 39.6206 -73.7839 219° Southwest 402 463 36,000 -51 Level Washington Center
Wed 06:47:20 AM 39.5408 -73.8775 222° Southwest 396 456 35,900  Descending Washington Center
Wed 06:48:23 AM 39.4586 -73.9681 220° Southwest 396 456 36,000 49 Climbing Washington Center
Wed 06:49:23 AM 39.3744 -74.0611 221° Southwest 396 456 36,000  Level Washington Center
Wed 06:50:20 AM 39.2903 -74.1542 221° Southwest 401 461 36,000  Level Washington Center
Wed 06:51:21 AM 39.1997 -74.2525 220° Southwest 401 461 36,000 -50 Level Washington Center
Wed 06:52:21 AM 39.1172 -74.3422 220° Southwest 401 461 35,900  Descending Washington Center
Wed 06:53:21 AM 39.0306 -74.4347 220° Southwest 401 461 36,000  Climbing Washington Center
Wed 06:54:22 AM 38.9461 -74.5267 220° Southwest 401 461 35,900  Descending Washington Center
Wed 06:55:20 AM 38.8592 -74.6214 220° Southwest 401 461 36,000 50 Climbing Washington Center
Wed 06:56:21 AM 38.7725 -74.7103 219° Southwest 401 461 36,000  Level Washington Center
Wed 06:57:22 AM 38.6897 -74.8017 221° Southwest 401 461 36,000 -49 Level Washington Center
Wed 06:58:23 AM 38.6047 -74.8931 220° Southwest 401 461 35,900 -50 Descending Washington Center
Wed 06:59:23 AM 38.5178 -74.9842 219° Southwest 401 461 35,900 51 Level Washington Center
Wed 07:00:21 AM 38.4306 -75.0750 219° Southwest 401 461 36,000 50 Climbing Washington Center
Wed 07:01:22 AM 38.3392 -75.1550 214° Southwest 401 461 36,000  Level Washington Center
Wed 07:02:21 AM 38.2475 -75.2217 210° Southwest 401 461 36,000 -50 Level Washington Center
Wed 07:03:22 AM 38.1456 -75.2881 207° Southwest 412 474 35,900  Descending Washington Center
Wed 07:04:23 AM 38.0436 -75.3517 206° Southwest 412 474 36,000 50 Climbing Washington Center
Wed 07:05:21 AM 37.9394 -75.4181 207° Southwest 412 474 36,000 -51 Level Washington Center
Wed 07:06:21 AM 37.8353 -75.4839 207° Southwest 412 474 35,900 -50 Descending Washington Center
Wed 07:07:22 AM 37.7331 -75.5497 207° Southwest 417 480 35,900 50 Level Washington Center
Wed 07:08:22 AM 37.6289 -75.6153 206° Southwest 417 480 36,000 50 Climbing Washington Center
Wed 07:09:22 AM 37.5225 -75.6808 206° Southwest 422 486 36,000  Level Washington Center
Wed 07:10:21 AM 37.4158 -75.7486 207° Southwest 422 486 36,000 -50 Level Washington Center
Wed 07:11:22 AM 37.3094 -75.8139 206° Southwest 427 491 35,900  Descending Washington Center
Wed 07:12:23 AM 37.2031 -75.8814 207° Southwest 427 491 36,000 50 Climbing Washington Center
Wed 07:13:21 AM 37.0986 -75.9461 206° Southwest 427 491 36,000 -50 Level Washington Center
Wed 07:14:22 AM 36.9939 -76.0106 206° Southwest 427 491 35,900  Descending Washington Center
Wed 07:15:23 AM 36.8728 -76.0775 204° Southwest 432 497 36,000 50 Climbing Washington Center
Wed 07:16:23 AM 36.7681 -76.1442 207° Southwest 432 497 36,000  Level Washington Center
Wed 07:17:20 AM 36.6572 -76.2081 205° Southwest 432 497 36,000  Level Washington Center
Wed 07:18:22 AM 36.5464 -76.2539 198° South 427 491 36,000 -49 Level Washington Center
Wed 07:19:23 AM 36.4378 -76.3044 201° Southwest 427 491 35,900 -51 Descending Washington Center
Wed 07:20:20 AM 36.3247 -76.3525 199° South 427 491 35,900 51 Level Washington Center
Wed 07:21:20 AM 36.2117 -76.4003 199° South 427 491 36,000 50 Climbing Washington Center
Wed 07:22:21 AM 36.1008 -76.4506 200° South 427 491 36,000  Level Washington Center
Wed 07:23:21 AM 35.9878 -76.4981 199° South 427 491 36,000  Level Washington Center
Wed 07:24:22 AM 35.8789 -76.5456 199° South 427 491 36,000  Level Washington Center
Wed 07:25:21 AM 35.7658 -76.5981 201° Southwest 427 491 36,000  Level Washington Center
Wed 07:26:21 AM 35.6528 -76.6428 198° South 427 491 36,000  Level Washington Center
Wed 07:27:22 AM 35.5417 -76.6897 199° South 427 491 36,000 -49 Level Washington Center
Wed 07:28:23 AM 35.4328 -76.7367 199° South 427 491 35,900  Descending Washington Center
Wed 07:29:21 AM 35.3342 -76.7836 201° Southwest 427 491 36,000 50 Climbing Washington Center
Wed 07:30:22 AM 35.2211 -76.8303 199° South 427 491 36,000  Level Washington Center
Wed 07:31:23 AM 35.1100 -76.8794 200° South 432 497 36,000  Level Washington Center
Wed 07:32:21 AM 34.9989 -76.9283 200° South 427 491 36,000  Level Washington Center
Wed 07:33:21 AM 34.8858 -76.9769 199° South 432 497 36,000 -50 Level Washington Center
Wed 07:34:22 AM 34.7747 -77.0233 199° South 432 497 35,900  Descending Washington Center
Wed 07:35:23 AM 34.6614 -77.0692 198° South 432 497 36,000 50 Climbing Washington Center
Wed 07:36:21 AM 34.5481 -77.1200 200° South 432 497 36,000  Level Washington Center
Wed 07:37:22 AM 34.4283 -77.1708 199° South 432 497 36,000  Level Washington Center
Wed 07:38:22 AM 34.3153 -77.2164 198° South 432 497 36,000  Level Washington Center
Wed 07:39:22 AM 34.2039 -77.2644 200° South 432 497 36,000  Level Washington Center
Wed 07:41:30 AM 33.9614 -77.3644 199° South 421 484 36,000  Level Jacksonville Center
Wed 07:42:31 AM 33.8467 -77.4117 199° South 426 490 36,000  Level Jacksonville Center
Wed 07:43:32 AM 33.7361 -77.4586 199° South 426 490 36,000 -50 Level Jacksonville Center
Wed 07:44:31 AM 33.6211 -77.5031 198° South 426 490 35,900  Descending Jacksonville Center
Wed 07:45:32 AM 33.5083 -77.5497 199° South 426 490 36,000 50 Climbing Jacksonville Center
Wed 07:46:32 AM 33.3936 -77.5989 200° South 436 502 36,000  Level Jacksonville Center
Wed 07:47:33 AM 33.2808 -77.6453 199° South 436 502 36,000  Level Jacksonville Center
Wed 07:48:33 AM 33.1658 -77.6919 199° South 436 502 36,000  Level Jacksonville Center
Wed 07:49:31 AM 33.0508 -77.7381 199° South 436 502 36,000  Level Jacksonville Center
Wed 07:50:32 AM 32.9381 -77.7842 199° South 436 502 36,000  Level Jacksonville Center
Wed 07:51:33 AM 32.8372 -77.8222 198° South 436 502 36,000  Level Jacksonville Center
Wed 07:52:31 AM 32.7203 -77.8731 200° South 436 502 36,000  Level Jacksonville Center
Wed 07:53:31 AM 32.6072 -77.9189 199° South 441 507 36,000 -50 Level Jacksonville Center
Wed 07:54:32 AM 32.4942 -77.9619 198° South 435 501 35,900  Descending Jacksonville Center
Wed 07:55:30 AM 32.3811 -78.0075 199° South 435 501 36,000 50 Climbing Jacksonville Center
Wed 07:56:31 AM 32.2661 -78.0553 199° South 440 506 36,000  Level Jacksonville Center
Wed 07:57:32 AM 32.1550 -78.0981 198° South 435 501 36,000 -49 Level Jacksonville Center
Wed 07:58:33 AM 32.0397 -78.1408 197° South 435 501 35,900  Descending Jacksonville Center
Wed 07:59:33 AM 31.9267 -78.1858 199° South 435 501 36,000 51 Climbing Jacksonville Center
Wed 08:00:30 AM 31.8136 -78.2356 200° South 435 501 36,000  Level Jacksonville Center
Wed 08:01:31 AM 31.6864 -78.2908 200° South 445 512 36,000  Level Jacksonville Center
Wed 08:02:32 AM 31.5792 -78.3278 196° South 425 489 36,000  Level Jacksonville Center
Wed 08:03:33 AM 31.4597 -78.3775 200° South 447 514 36,000  Level Jacksonville Center
Wed 08:04:30 AM 31.3464 -78.4194 198° South 441 507 36,000  Level Jacksonville Center
Wed 08:05:31 AM 31.2314 -78.4711 201° Southwest 429 494 36,000  Level Jacksonville Center
Wed 08:06:33 AM 31.1219 -78.5078 196° South 429 494 36,000  Level Jacksonville Center
Wed 08:07:33 AM 31.0089 -78.5542 199° South 434 499 36,000  Level Jacksonville Center
Wed 08:08:31 AM 30.9100 -78.5903 197° South 426 490 36,000  Level Jacksonville Center
Wed 08:09:32 AM 30.7967 -78.6339 198° South 421 484 36,000  Level Jacksonville Center
Wed 08:10:33 AM 30.6872 -78.6753 198° South 421 484 36,000  Level Jacksonville Center
Wed 08:11:30 AM 30.5781 -78.7211 200° South 422 486 36,000  Level Jacksonville Center
Wed 08:12:05 AM 30.5033 -78.7453 196° South 428 493 36,000 -63 Level Miami Center
Wed 08:13:05 AM 30.3903 -78.7839 196° South 413 475 35,900  Descending Miami Center
Wed 08:14:05 AM 30.2669 -78.8106 191° South 427 491 36,000  Climbing Miami Center
Wed 08:15:05 AM 30.1542 -78.8372 192° South 439 505 35,900 -50 Descending Miami Center
Wed 08:16:05 AM 30.0392 -78.8639 191° South 428 493 35,900  Level Miami Center
Wed 08:17:05 AM 29.9364 -78.8956 195° South 428 493 35,900  Level Miami Center
Wed 08:18:05 AM 29.8194 -78.9197 190° South 438 504 35,900 -450 Level Miami Center
Wed 08:19:05 AM 29.6919 -78.9364 186° South 438 504 35,000 -950 Descending Miami Center
Wed 08:20:05 AM 29.5850 -78.9725 196° South 432 497 34,000 -500 Descending Miami Center
Wed 08:21:05 AM 29.4658 -78.9986 191° South 432 497 34,000  Level Miami Center
Wed 08:22:05 AM 29.3444 -79.0203 189° South 432 497 34,000  Level Miami Center
Wed 08:23:05 AM 29.2292 -79.0489 192° South 438 504 34,000  Level Miami Center
Wed 08:24:05 AM 29.1142 -79.0775 192° South 437 503 34,000 -50 Level Miami Center
Wed 08:25:05 AM 29.0011 -79.1036 191° South 430 495 33,900 -50 Descending Miami Center
Wed 08:26:05 AM 28.8836 -79.1297 191° South 430 495 33,900 50 Level Miami Center
Wed 08:27:05 AM 28.7686 -79.1558 191° South 430 495 34,000 50 Climbing Miami Center
Wed 08:28:05 AM 28.6514 -79.1794 190° South 425 489 34,000 -400 Level Miami Center
Wed 08:29:05 AM 28.5339 -79.2053 191° South 431 496 33,200 -900 Descending Miami Center
Wed 08:30:05 AM 28.4144 -79.2358 193° South 431 496 32,200 -1,000 Descending Miami Center
Wed 08:31:05 AM 28.3072 -79.2950 206° Southwest 431 496 31,200 -1,550 Descending Miami Center
Wed 08:32:05 AM 28.1914 -79.3489 202° Southwest 443 510 29,100 -2,250 Descending Miami Center
Wed 08:33:05 AM 28.0797 -79.4053 204° Southwest 443 510 26,700 -2,400 Descending Miami Center
Wed 08:34:05 AM 27.9597 -79.4661 204° Southwest 443 510 24,300 -2,300 Descending Miami Center
Wed 08:35:05 AM 27.8628 -79.5178 205° Southwest 436 502 22,100 -2,450 Descending Miami Center
Wed 08:36:05 AM 27.7447 -79.5739 203° Southwest 419 482 19,400 -2,450 Descending Miami Center
Wed 08:37:05 AM 27.6436 -79.6253 204° Southwest 412 474 17,200 -2,150 Descending Miami Center
Wed 08:38:05 AM 27.5444 -79.6744 204° Southwest 402 463 15,100 -2,100 Descending Miami Center
Wed 08:39:05 AM 27.4600 -79.7169 204° Southwest 380 437 13,000 -2,000 Descending Miami Center
Wed 08:40:05 AM 27.3694 -79.7614 204° Southwest 363 418 11,100 -1,450 Descending Miami Center
Wed 08:41:05 AM 27.2828 -79.8061 205° Southwest 334 384 10,100 -950 Descending Miami Center
Wed 08:42:05 AM 27.2153 -79.8392 204° Southwest 294 338 9,200 -1,000 Descending Miami Center
Wed 08:43:05 AM 27.1478 -79.8725 204° Southwest 275 316 8,100 -1,300 Descending Miami Center
Wed 08:44:05 AM 27.0844 -79.9083 207° Southwest 275 316 6,600 -1,500 Descending Miami Center
Wed 08:45:05 AM 27.0083 -79.9506 206° Southwest 282 325 5,100 -1,300 Descending Miami Center
Wed 08:46:05 AM 26.9450 -79.9908 210° Southwest 268 308 4,000 -550 Descending Miami Center
Wed 08:47:05 AM 26.8875 -80.0406 218° Southwest 262 302 4,000  Level Miami Center
Wed 08:48:05 AM 26.8364 -80.0833 217° Southwest 262 302 4,000  Level Miami Center
Wed 08:50:00 AM 26.6832 -80.0956 265° West  Level Estimated
Wed 08:57:00 AM 26.6832 -80.0956 110° East  Level Estimated
Wed 08:58:00 AM 26.6832 -80.0956 110° East  Level Estimated
Wed 08:59:00 AM 26.6832 -80.0956 110° East  Level Estimated
Wed 09:00:00 AM 26.6832 -80.0956 110° East  Level Estimated
Wed 09:01:00 AM 26.6832 -80.0956 110° East  Level Estimated
Wed 09:02:00 AM 26.6832 -80.0956 110° East  Level Estimated
Wed 09:03:00 AM 26.6832 -80.0956 110° East  Level Estimated
Wed 09:04:00 AM 26.6832 -80.0956 110° East  Level Estimated

Login

Don't have an account? Register now (free) for customized features, flight alerts, and more!